Time;durP1;ratioP1;P1;durP2;ratioP2;P2;SDS_P1;SDS_P2;PMS_P1;PMS_P2;Temp;Humidity;BMP_temperature;BMP_pressure;BME280_temperature;BME280_humidity;BME280_pressure;Samples;Min_cycle;Max_cycle;Signal;HPM_P1;HPM_P2
2023/05/21 00:00:28;;;;;;;13.00;11.80;;;17.90;99.90;;;;;;5067646;28;20203;-71
2023/05/21 00:02:57;;;;;;;13.00;11.80;;;17.90;99.90;;;;;;5067944;28;20799;-71
2023/05/21 00:05:24;;;;;;;12.97;11.57;;;17.80;99.90;;;;;;5067711;28;20210;-71
2023/05/21 00:07:53;;;;;;;13.47;12.17;;;17.80;99.90;;;;;;5067692;28;21031;-71
2023/05/21 00:10:20;;;;;;;12.20;11.00;;;17.80;99.90;;;;;;5067350;28;20207;-71
2023/05/21 00:12:47;;;;;;;13.27;11.97;;;17.80;99.90;;;;;;5067245;28;20255;-71
2023/05/21 00:15:16;;;;;;;13.80;12.17;;;17.70;99.90;;;;;;5067173;28;20235;-72
2023/05/21 00:17:44;;;;;;;13.20;11.90;;;17.70;99.90;;;;;;5067393;28;20207;-73
2023/05/21 00:20:12;;;;;;;13.43;12.07;;;17.60;99.90;;;;;;5067957;28;20294;-72
2023/05/21 00:22:40;;;;;;;12.37;11.20;;;17.60;99.90;;;;;;5066881;28;20694;-72
2023/05/21 00:25:08;;;;;;;14.40;11.73;;;17.60;99.90;;;;;;5067670;28;20207;-72
2023/05/21 00:27:35;;;;;;;13.20;11.97;;;17.60;99.90;;;;;;5067539;28;20211;-73
2023/05/21 00:30:02;;;;;;;12.93;11.67;;;17.60;99.90;;;;;;5067509;28;20310;-72
2023/05/21 00:32:30;;;;;;;14.17;12.10;;;17.50;99.90;;;;;;5067452;28;20298;-72
2023/05/21 00:34:57;;;;;;;12.60;11.50;;;17.50;99.90;;;;;;5067510;28;20776;-72
2023/05/21 00:37:24;;;;;;;12.23;11.13;;;17.50;99.90;;;;;;5067533;28;20420;-72
2023/05/21 00:39:51;;;;;;;13.10;11.90;;;17.50;99.90;;;;;;5067312;28;20208;-72
2023/05/21 00:42:18;;;;;;;12.87;11.70;;;17.40;99.90;;;;;;5067129;28;20311;-72
2023/05/21 00:44:45;;;;;;;12.77;11.67;;;17.40;99.90;;;;;;5067200;28;20267;-72
2023/05/21 00:47:17;;;;;;;12.83;11.63;;;17.40;99.90;;;;;;5066858;28;20211;-72
2023/05/21 00:49:45;;;;;;;13.07;11.93;;;17.40;99.90;;;;;;5066672;28;20218;-72
2023/05/21 00:52:12;;;;;;;13.50;12.40;;;17.40;99.90;;;;;;5066916;28;20215;-72
2023/05/21 00:54:40;;;;;;;12.87;11.77;;;17.40;99.90;;;;;;5066274;28;20318;-72
2023/05/21 00:57:07;;;;;;;13.13;12.03;;;17.40;99.90;;;;;;5066631;28;20686;-72
2023/05/21 00:59:34;;;;;;;13.63;12.33;;;17.40;99.90;;;;;;5066646;28;20313;-72
2023/05/21 01:02:02;;;;;;;13.43;12.23;;;17.40;99.90;;;;;;5066298;28;20773;-72
2023/05/21 01:04:30;;;;;;;13.77;12.33;;;17.30;99.90;;;;;;5060798;28;20597;-72
2023/05/21 01:06:58;;;;;;;14.53;13.30;;;17.30;99.90;;;;;;5065026;28;20290;-72
2023/05/21 01:09:26;;;;;;;14.43;13.00;;;17.20;99.90;;;;;;5066442;28;20857;-73
2023/05/21 01:11:54;;;;;;;13.03;11.83;;;17.20;99.90;;;;;;5066611;28;20482;-73
2023/05/21 01:14:21;;;;;;;13.33;12.13;;;17.00;99.90;;;;;;5066667;28;20235;-73
2023/05/21 01:16:50;;;;;;;13.97;12.57;;;17.00;99.90;;;;;;5066381;28;20261;-72
2023/05/21 01:19:19;;;;;;;13.60;12.40;;;17.00;99.90;;;;;;5066230;28;20249;-72
2023/05/21 01:21:50;;;;;;;14.03;12.07;;;17.00;99.90;;;;;;5065945;28;20210;-72
2023/05/21 01:24:18;;;;;;;13.03;11.93;;;17.00;99.90;;;;;;5066514;28;20235;-72
2023/05/21 01:26:45;;;;;;;14.77;12.23;;;17.00;99.90;;;;;;5066325;28;20943;-73
2023/05/21 01:29:13;;;;;;;14.40;13.00;;;17.10;99.90;;;;;;5066677;28;20310;-73
2023/05/21 01:31:52;;;;;;;13.13;12.03;;;17.10;99.90;;;;;;5065876;28;20226;-73
2023/05/21 01:34:25;;;;;;;13.33;12.03;;;17.10;99.90;;;;;;5066003;28;20313;-73
2023/05/21 01:36:59;;;;;;;14.03;12.73;;;17.10;99.90;;;;;;5066085;28;20282;-74
2023/05/21 01:39:33;;;;;;;13.63;12.50;;;17.00;99.90;;;;;;5066065;28;20279;-73
2023/05/21 01:42:03;;;;;;;13.37;11.97;;;17.00;99.90;;;;;;5066048;28;20233;-73
2023/05/21 01:44:31;;;;;;;15.20;12.37;;;17.00;99.90;;;;;;5065672;28;20235;-73
2023/05/21 01:46:59;;;;;;;13.50;12.20;;;17.00;99.90;;;;;;5065770;28;20298;-73
2023/05/21 01:49:26;;;;;;;13.80;12.47;;;16.90;99.90;;;;;;5065260;28;20888;-74
2023/05/21 01:51:53;;;;;;;13.70;12.50;;;16.90;99.90;;;;;;5065473;28;20634;-73
2023/05/21 01:54:20;;;;;;;14.07;12.63;;;16.90;99.90;;;;;;5065399;28;20292;-73
2023/05/21 01:56:49;;;;;;;13.30;12.00;;;16.90;99.90;;;;;;5065852;28;20249;-73
2023/05/21 01:59:17;;;;;;;13.40;12.20;;;16.80;99.90;;;;;;5065890;28;20659;-74
2023/05/21 02:01:44;;;;;;;13.93;12.50;;;16.80;99.90;;;;;;5066064;28;20254;-74
2023/05/21 02:04:11;;;;;;;13.80;12.40;;;16.80;99.90;;;;;;5065675;28;20290;-73
2023/05/21 02:06:38;;;;;;;13.53;12.13;;;16.80;99.90;;;;;;5065713;28;20547;-74
2023/05/21 02:09:05;;;;;;;13.90;12.60;;;16.80;99.90;;;;;;5065672;28;20928;-73
2023/05/21 02:11:32;;;;;;;13.27;12.00;;;16.80;99.90;;;;;;5065473;28;20299;-73
2023/05/21 02:14:00;;;;;;;13.63;12.23;;;16.80;99.90;;;;;;5065921;28;20280;-72
2023/05/21 02:16:27;;;;;;;13.40;12.13;;;16.80;99.90;;;;;;5065182;28;20797;-73
2023/05/21 02:18:56;;;;;;;14.00;12.70;;;16.80;99.90;;;;;;5065350;28;20290;-72
2023/05/21 02:21:23;;;;;;;14.23;12.73;;;16.70;99.90;;;;;;5065680;28;20238;-72
2023/05/21 02:23:49;;;;;;;13.80;12.37;;;16.70;99.90;;;;;;5065725;28;20291;-72
2023/05/21 02:26:17;;;;;;;13.40;12.20;;;16.70;99.90;;;;;;5065995;28;20298;-72
2023/05/21 02:28:44;;;;;;;13.60;12.33;;;16.70;99.90;;;;;;5065767;28;20207;-72
2023/05/21 02:31:12;;;;;;;14.13;12.93;;;16.70;99.90;;;;;;5065806;28;20294;-72
2023/05/21 02:33:40;;;;;;;14.03;12.17;;;16.70;99.90;;;;;;5065957;28;20203;-72
2023/05/21 02:36:11;;;;;;;14.93;13.43;;;16.60;99.90;;;;;;5069907;28;20229;-72
2023/05/21 02:38:39;;;;;;;14.03;12.63;;;16.60;99.90;;;;;;5069516;28;20249;-72
2023/05/21 02:41:07;;;;;;;15.47;12.77;;;16.60;99.90;;;;;;5069644;28;20209;-73
2023/05/21 02:43:34;;;;;;;15.10;13.60;;;16.60;99.90;;;;;;5068993;28;20225;-73
2023/05/21 02:46:00;;;;;;;13.83;12.50;;;16.60;99.90;;;;;;5069208;28;20221;-72
2023/05/21 02:48:29;;;;;;;13.73;12.33;;;16.50;99.90;;;;;;5069335;28;20326;-73
2023/05/21 02:50:55;;;;;;;14.77;13.33;;;16.50;99.90;;;;;;5069338;28;20765;-73
2023/05/21 02:53:22;;;;;;;16.27;13.97;;;16.50;99.90;;;;;;5069264;28;20200;-73
2023/05/21 02:55:49;;;;;;;15.30;12.70;;;16.50;99.90;;;;;;5068916;28;20318;-72
2023/05/21 02:58:16;;;;;;;14.63;13.30;;;16.50;99.90;;;;;;5068762;28;20238;-72
2023/05/21 03:00:43;;;;;;;14.17;12.77;;;16.50;99.90;;;;;;5064359;28;20576;-72
2023/05/21 03:03:10;;;;;;;14.40;13.10;;;16.50;99.90;;;;;;5068218;28;20268;-72
2023/05/21 03:05:38;;;;;;;15.57;13.70;;;16.40;99.90;;;;;;5068512;28;20219;-72
2023/05/21 03:08:05;;;;;;;16.27;14.23;;;16.40;99.90;;;;;;5068595;28;20696;-72
2023/05/21 03:10:32;;;;;;;14.80;13.47;;;16.40;99.90;;;;;;5069045;28;20294;-73
2023/05/21 03:13:00;;;;;;;15.77;14.27;;;16.40;99.90;;;;;;5068417;28;20235;-72
2023/05/21 03:15:32;;;;;;;15.50;14.10;;;16.30;99.90;;;;;;5068602;28;20324;-72
2023/05/21 03:17:59;;;;;;;15.50;13.90;;;16.20;99.90;;;;;;5068178;28;20200;-73
2023/05/21 03:20:26;;;;;;;15.23;13.93;;;16.20;99.90;;;;;;5068694;28;20618;-73
2023/05/21 03:22:55;;;;;;;16.47;14.87;;;16.20;99.90;;;;;;5068449;28;20209;-72
2023/05/21 03:25:23;;;;;;;15.97;14.40;;;16.20;99.90;;;;;;5068836;28;20222;-73
2023/05/21 03:27:51;;;;;;;15.90;14.40;;;16.20;99.90;;;;;;5068664;28;20223;-72
2023/05/21 03:30:18;;;;;;;16.67;14.97;;;16.20;99.90;;;;;;5067844;28;20206;-72
2023/05/21 03:32:45;;;;;;;15.67;14.17;;;16.10;99.90;;;;;;5068205;28;20224;-72
2023/05/21 03:35:12;;;;;;;16.87;14.77;;;16.20;99.90;;;;;;5068140;28;20326;-72
2023/05/21 03:37:38;;;;;;;15.97;14.60;;;16.20;99.90;;;;;;5067927;28;20356;-73
2023/05/21 03:40:08;;;;;;;16.13;14.60;;;16.20;99.90;;;;;;5068227;28;20290;-72
2023/05/21 03:42:35;;;;;;;16.93;15.33;;;16.20;99.90;;;;;;5068266;28;20315;-73
2023/05/21 03:45:02;;;;;;;17.03;15.23;;;16.20;99.90;;;;;;5067758;28;20298;-73
2023/05/21 03:47:29;;;;;;;16.33;14.83;;;16.20;99.90;;;;;;5067980;28;20299;-72
2023/05/21 03:49:56;;;;;;;18.23;15.00;;;16.20;99.90;;;;;;5068605;28;20294;-72
2023/05/21 03:52:23;;;;;;;18.47;15.73;;;16.30;99.90;;;;;;5068070;28;20322;-69
2023/05/21 03:54:50;;;;;;;17.20;15.60;;;16.30;99.90;;;;;;5068036;28;20233;-70
2023/05/21 03:57:18;;;;;;;18.27;16.20;;;16.30;99.90;;;;;;5067769;28;20729;-70
2023/05/21 03:59:45;;;;;;;17.50;15.70;;;16.30;99.90;;;;;;5067982;28;20298;-70
2023/05/21 04:02:12;;;;;;;17.57;15.53;;;16.30;99.90;;;;;;5068007;28;20289;-71
2023/05/21 04:04:39;;;;;;;17.00;15.43;;;16.30;99.90;;;;;;5067911;28;20217;-70
2023/05/21 04:07:13;;;;;;;16.47;14.87;;;16.30;99.90;;;;;;5068127;28;20234;-71
2023/05/21 04:09:41;;;;;;;17.20;15.30;;;16.30;99.90;;;;;;5067927;28;20215;-70
2023/05/21 04:12:08;;;;;;;17.23;15.63;;;16.30;99.90;;;;;;5067406;28;20244;-71
2023/05/21 04:14:37;;;;;;;18.33;16.00;;;16.40;99.90;;;;;;5067895;28;20211;-71
2023/05/21 04:17:04;;;;;;;17.20;15.47;;;16.40;99.90;;;;;;5067364;28;20212;-71
2023/05/21 04:19:31;;;;;;;17.63;15.67;;;16.40;99.90;;;;;;5067331;28;20287;-72
2023/05/21 04:21:58;;;;;;;17.30;15.60;;;16.40;99.90;;;;;;5067183;28;20662;-72
2023/05/21 04:24:25;;;;;;;17.97;16.17;;;16.40;99.90;;;;;;5067244;28;20303;-72
2023/05/21 04:26:52;;;;;;;17.83;16.23;;;16.50;99.90;;;;;;5067449;28;20291;-72
2023/05/21 04:29:20;;;;;;;17.40;15.70;;;16.50;99.90;;;;;;5067296;28;20310;-71
2023/05/21 04:31:48;;;;;;;17.90;15.83;;;16.50;99.90;;;;;;5067035;28;20212;-72
2023/05/21 04:34:16;;;;;;;17.23;15.73;;;16.50;99.90;;;;;;5066908;28;20240;-72
2023/05/21 04:36:43;;;;;;;16.83;15.13;;;16.60;99.90;;;;;;5067329;28;20656;-71
2023/05/21 04:39:10;;;;;;;17.43;15.57;;;16.60;99.90;;;;;;5066986;28;20214;-72
2023/05/21 04:41:38;;;;;;;18.83;17.13;;;16.60;99.90;;;;;;5067056;28;20231;-72
2023/05/21 04:44:07;;;;;;;19.03;16.90;;;16.70;99.90;;;;;;5067091;28;20200;-73
2023/05/21 04:46:34;;;;;;;18.40;16.50;;;16.60;99.90;;;;;;5066582;28;20223;-73
2023/05/21 04:49:03;;;;;;;18.70;16.83;;;16.70;99.90;;;;;;5066581;28;20582;-73
2023/05/21 04:51:29;;;;;;;18.33;16.53;;;16.70;99.90;;;;;;5066770;28;20214;-73
2023/05/21 04:53:56;;;;;;;18.07;16.20;;;16.80;99.90;;;;;;5066501;28;20235;-73
2023/05/21 04:56:25;;;;;;;18.10;16.40;;;16.80;99.90;;;;;;5065906;28;20239;-73
2023/05/21 04:58:52;;;;;;;18.57;16.87;;;16.90;99.90;;;;;;5066545;28;20233;-73
2023/05/21 05:01:21;;;;;;;19.17;17.47;;;16.90;99.90;;;;;;5066030;28;20203;-73
2023/05/21 05:03:48;;;;;;;20.90;17.57;;;16.90;99.90;;;;;;5066517;28;20204;-73
2023/05/21 05:06:17;;;;;;;18.23;16.53;;;17.00;99.90;;;;;;5066742;28;20226;-72
2023/05/21 05:08:44;;;;;;;18.27;16.57;;;17.00;99.90;;;;;;5066449;28;20669;-73
2023/05/21 05:11:11;;;;;;;19.33;17.50;;;17.10;99.90;;;;;;5066357;28;20214;-73
2023/05/21 05:13:40;;;;;;;18.60;17.00;;;17.10;99.90;;;;;;5065881;28;20324;-73
2023/05/21 05:16:07;;;;;;;19.67;17.63;;;17.20;99.90;;;;;;5065781;28;20318;-73
2023/05/21 05:18:34;;;;;;;19.63;17.70;;;17.30;99.90;;;;;;5066402;28;20211;-73
2023/05/21 05:21:01;;;;;;;19.87;18.07;;;17.30;99.90;;;;;;5066028;28;20211;-73
2023/05/21 05:23:29;;;;;;;18.50;16.67;;;17.30;99.90;;;;;;5065702;28;20291;-73
2023/05/21 05:25:56;;;;;;;22.77;18.13;;;17.40;99.90;;;;;;5065913;28;20819;-73
2023/05/21 05:28:23;;;;;;;17.23;15.67;;;17.40;99.90;;;;;;5066052;28;20286;-73
2023/05/21 05:30:50;;;;;;;18.73;17.13;;;17.50;99.90;;;;;;5065917;28;20203;-73
2023/05/21 05:33:17;;;;;;;20.60;18.43;;;17.50;99.90;;;;;;5065723;28;20231;-72
2023/05/21 05:35:44;;;;;;;18.50;16.77;;;17.50;99.90;;;;;;5065573;28;20317;-72
2023/05/21 05:38:10;;;;;;;20.50;18.53;;;17.60;99.90;;;;;;5065783;28;20685;-72
2023/05/21 05:40:39;;;;;;;20.40;17.87;;;17.60;99.90;;;;;;5065711;28;20286;-72
2023/05/21 05:43:07;;;;;;;19.10;17.30;;;17.60;99.90;;;;;;5065605;28;20223;-73
2023/05/21 05:45:34;;;;;;;19.17;17.37;;;17.70;99.90;;;;;;5066186;28;20237;-71
2023/05/21 05:48:00;;;;;;;19.63;17.83;;;17.80;99.90;;;;;;5065884;28;20298;-71
2023/05/21 05:50:27;;;;;;;19.37;17.40;;;17.80;99.90;;;;;;5065815;28;20323;-72
2023/05/21 05:52:54;;;;;;;17.93;16.23;;;17.80;99.90;;;;;;5066056;28;20310;-74
2023/05/21 05:55:23;;;;;;;18.43;16.67;;;17.90;99.90;;;;;;5065967;28;20227;-74
2023/05/21 05:57:52;;;;;;;18.77;17.07;;;17.80;99.90;;;;;;5065930;28;20856;-72
2023/05/21 06:00:19;;;;;;;18.83;16.93;;;17.90;99.90;;;;;;5061581;28;20315;-72
2023/05/21 06:02:46;;;;;;;18.00;16.20;;;17.90;99.90;;;;;;5066159;28;20222;-73
2023/05/21 06:05:13;;;;;;;18.30;16.70;;;18.00;99.90;;;;;;5065933;28;20210;-72
2023/05/21 06:07:40;;;;;;;17.60;16.10;;;18.00;99.90;;;;;;5065452;28;20300;-72
2023/05/21 06:10:08;;;;;;;18.00;16.50;;;18.00;99.90;;;;;;5065892;28;20286;-72
2023/05/21 06:12:35;;;;;;;19.27;16.80;;;18.00;99.90;;;;;;5065158;28;20334;-73
2023/05/21 06:15:04;;;;;;;17.93;16.20;;;18.00;99.90;;;;;;5065497;28;20684;-73
2023/05/21 06:17:31;;;;;;;18.93;17.23;;;18.00;99.90;;;;;;5065825;28;20262;-73
2023/05/21 06:19:58;;;;;;;18.57;16.67;;;18.00;99.90;;;;;;5065886;28;20204;-74
2023/05/21 06:22:25;;;;;;;18.47;16.00;;;18.00;99.90;;;;;;5065978;28;20318;-74
2023/05/21 06:24:52;;;;;;;15.70;14.23;;;18.00;99.90;;;;;;5065439;28;20239;-73
2023/05/21 06:27:19;;;;;;;17.10;15.60;;;18.00;99.90;;;;;;5065662;28;20244;-73
2023/05/21 06:29:46;;;;;;;16.67;15.17;;;18.10;99.90;;;;;;5065619;28;20293;-73
2023/05/21 06:32:14;;;;;;;18.40;16.63;;;18.10;99.90;;;;;;5066026;28;20311;-72
2023/05/21 06:34:41;;;;;;;16.57;14.97;;;18.10;99.90;;;;;;5065039;28;20661;-73
2023/05/21 06:37:08;;;;;;;17.23;15.63;;;18.10;99.90;;;;;;5065776;28;20235;-73
2023/05/21 06:39:34;;;;;;;17.97;15.73;;;18.10;99.90;;;;;;5065856;28;20207;-72
2023/05/21 06:42:01;;;;;;;16.53;15.13;;;18.10;99.90;;;;;;5065587;28;20705;-72
2023/05/21 06:44:28;;;;;;;17.77;15.97;;;18.10;99.90;;;;;;5065436;28;20286;-73
2023/05/21 06:46:55;;;;;;;17.47;15.07;;;18.10;99.90;;;;;;5065125;28;20245;-72
2023/05/21 06:49:23;;;;;;;17.83;16.03;;;18.10;99.90;;;;;;5065005;28;20683;-72
2023/05/21 06:51:50;;;;;;;18.67;15.23;;;18.10;99.90;;;;;;5065296;28;20207;-72
2023/05/21 06:54:17;;;;;;;16.80;15.10;;;18.10;99.90;;;;;;5064969;28;20211;-72
2023/05/21 06:56:44;;;;;;;17.10;15.60;;;18.10;99.90;;;;;;5064785;28;20325;-72
2023/05/21 06:59:11;;;;;;;17.03;15.43;;;18.10;99.90;;;;;;5064798;28;20726;-72
2023/05/21 07:01:41;;;;;;;17.43;15.73;;;18.10;99.90;;;;;;5065019;28;20738;-72
2023/05/21 07:04:08;;;;;;;17.20;15.67;;;18.10;99.90;;;;;;5065375;28;20208;-72
2023/05/21 07:06:36;;;;;;;20.77;16.50;;;18.10;99.90;;;;;;5065348;28;20207;-71
2023/05/21 07:09:04;;;;;;;20.17;15.17;;;18.20;99.90;;;;;;5065375;28;20215;-72
2023/05/21 07:11:31;;;;;;;15.43;14.03;;;18.30;99.90;;;;;;5064554;28;20694;-72
2023/05/21 07:14:00;;;;;;;16.30;14.97;;;18.30;99.90;;;;;;5064803;28;20230;-72
2023/05/21 07:16:27;;;;;;;16.40;14.97;;;18.30;99.90;;;;;;5064559;28;20843;-74
2023/05/21 07:18:54;;;;;;;16.73;15.13;;;18.30;99.90;;;;;;5064975;28;20984;-72
2023/05/21 07:21:21;;;;;;;15.60;14.17;;;18.40;99.90;;;;;;5068487;28;20210;-72
2023/05/21 07:23:49;;;;;;;16.03;14.57;;;18.50;99.90;;;;;;5068803;28;20757;-72
2023/05/21 07:26:16;;;;;;;15.93;14.07;;;18.50;99.90;;;;;;5068642;28;20249;-73
2023/05/21 07:28:43;;;;;;;16.00;14.60;;;18.50;99.90;;;;;;5068622;28;20242;-73
2023/05/21 07:31:11;;;;;;;15.67;14.07;;;18.60;99.90;;;;;;5068974;28;20219;-73
2023/05/21 07:33:38;;;;;;;15.33;13.90;;;18.60;99.90;;;;;;5068357;28;20849;-73
2023/05/21 07:36:06;;;;;;;14.20;12.73;;;18.60;99.90;;;;;;5068929;28;20310;-73
2023/05/21 07:38:33;;;;;;;15.27;13.77;;;18.70;99.90;;;;;;5068542;28;20955;-73
2023/05/21 07:41:01;;;;;;;15.27;13.77;;;18.60;99.90;;;;;;5069155;28;20235;-72
2023/05/21 07:43:28;;;;;;;15.07;13.80;;;18.70;99.90;;;;;;5063908;28;20303;-73
2023/05/21 07:45:55;;;;;;;15.33;13.23;;;18.80;99.90;;;;;;5068495;28;20215;-72
2023/05/21 07:48:22;;;;;;;13.80;12.43;;;18.80;99.90;;;;;;5068084;28;20207;-73
2023/05/21 07:50:51;;;;;;;14.13;12.93;;;18.80;99.90;;;;;;5067945;28;20760;-73
2023/05/21 07:53:18;;;;;;;14.33;12.97;;;18.90;99.90;;;;;;5067985;28;20208;-72
2023/05/21 07:55:47;;;;;;;14.60;13.23;;;19.00;99.90;;;;;;5068058;28;20211;-72
2023/05/21 07:58:16;;;;;;;14.17;12.87;;;19.10;99.90;;;;;;5067704;28;20214;-72
2023/05/21 08:00:45;;;;;;;14.23;13.03;;;19.10;99.90;;;;;;5067620;28;20665;-72
2023/05/21 08:03:14;;;;;;;13.60;12.23;;;19.20;99.90;;;;;;5068133;28;20264;-71
2023/05/21 08:05:43;;;;;;;13.23;11.97;;;19.20;99.90;;;;;;5067828;28;20298;-71
2023/05/21 08:08:10;;;;;;;15.30;12.23;;;19.20;99.90;;;;;;5067975;28;20214;-71
2023/05/21 08:10:37;;;;;;;12.57;11.27;;;19.20;99.90;;;;;;5067879;28;20824;-73
2023/05/21 08:13:06;;;;;;;13.20;11.93;;;19.20;99.90;;;;;;5067678;28;20248;-73
2023/05/21 08:15:35;;;;;;;13.70;12.43;;;19.30;99.90;;;;;;5067819;28;20215;-74
2023/05/21 08:18:02;;;;;;;13.70;12.30;;;19.30;99.90;;;;;;5068178;28;20235;-74
2023/05/21 08:20:29;;;;;;;18.67;12.00;;;19.40;99.90;;;;;;5067789;28;20663;-73
2023/05/21 08:22:56;;;;;;;12.80;11.60;;;19.40;99.90;;;;;;5067612;28;20199;-73
2023/05/21 08:25:23;;;;;;;12.23;11.13;;;19.50;99.90;;;;;;5067606;28;20283;-73
2023/05/21 08:27:50;;;;;;;11.37;10.37;;;19.50;99.90;;;;;;5067584;28;20311;-73
2023/05/21 08:30:17;;;;;;;11.20;10.30;;;19.60;99.90;;;;;;5066994;28;20243;-73
2023/05/21 08:32:45;;;;;;;11.27;10.20;;;19.60;99.90;;;;;;5067023;28;20302;-73
2023/05/21 08:35:12;;;;;;;11.23;10.30;;;19.70;99.90;;;;;;5067688;28;20294;-73
2023/05/21 08:37:39;;;;;;;11.43;10.53;;;19.70;99.90;;;;;;5067327;28;20227;-72
2023/05/21 08:40:07;;;;;;;16.50;11.23;;;19.80;99.90;;;;;;5067129;28;20269;-72
2023/05/21 08:42:42;;;;;;;12.13;10.93;;;19.90;99.90;;;;;;5066712;28;20277;-72
2023/05/21 08:45:13;;;;;;;12.03;10.00;;;20.00;99.90;;;;;;5066839;28;20205;-72
2023/05/21 08:47:43;;;;;;;13.47;10.50;;;20.00;99.90;;;;;;5067002;28;20200;-72
2023/05/21 08:50:14;;;;;;;11.23;10.17;;;20.10;99.90;;;;;;5067148;28;20211;-72
2023/05/21 08:52:41;;;;;;;28.20;12.50;;;20.10;99.90;;;;;;5067037;28;20437;-73
2023/05/21 08:55:09;;;;;;;11.32;10.32;;;20.20;99.90;;;;;;5067100;28;20298;-73
2023/05/21 08:57:36;;;;;;;11.30;10.20;;;20.30;99.90;;;;;;5066405;28;20231;-73
2023/05/21 09:00:05;;;;;;;11.00;9.90;;;20.30;99.90;;;;;;5066793;28;20618;-73
2023/05/21 09:02:37;;;;;;;12.30;11.03;;;20.30;99.90;;;;;;5066946;28;20207;-72
2023/05/21 09:05:05;;;;;;;12.50;10.27;;;20.40;99.90;;;;;;5066911;28;20196;-72
2023/05/21 09:07:40;;;;;;;11.03;10.00;;;20.60;99.90;;;;;;5066592;28;20322;-72
2023/05/21 09:10:08;;;;;;;11.80;9.52;;;20.60;99.90;;;;;;5066689;28;20602;-71
2023/05/21 09:12:35;;;;;;;10.15;9.35;;;20.60;99.90;;;;;;5066002;28;20246;-72
2023/05/21 09:15:04;;;;;;;10.07;9.07;;;20.70;99.90;;;;;;5046828;28;20235;-71
2023/05/21 09:17:31;;;;;;;9.80;8.90;;;20.70;99.90;;;;;;5060964;28;21042;-71
2023/05/21 09:20:11;;;;;;;10.20;9.20;;;20.70;99.90;;;;;;5066129;28;20311;-72
2023/05/21 09:22:41;;;;;;;10.82;9.60;;;20.80;99.90;;;;;;5066182;28;20571;-69
2023/05/21 09:25:09;;;;;;;11.13;9.40;;;20.80;99.90;;;;;;5066019;28;20206;-71
2023/05/21 09:27:36;;;;;;;9.60;8.73;;;21.00;99.90;;;;;;5053791;28;21072;-70
2023/05/21 09:30:05;;;;;;;9.45;8.57;;;21.10;99.90;;;;;;5064069;28;20215;-70
2023/05/21 09:32:32;;;;;;;9.02;8.40;;;21.10;99.90;;;;;;5064207;28;20207;-70
2023/05/21 09:35:09;;;;;;;9.15;8.13;;;21.10;99.90;;;;;;5063595;28;20211;-68
2023/05/21 09:37:42;;;;;;;11.00;9.50;;;21.10;99.90;;;;;;5063946;28;20525;-69
2023/05/21 09:40:14;;;;;;;9.40;8.70;;;21.10;99.90;;;;;;5063945;28;20208;-69
2023/05/21 09:42:41;;;;;;;11.27;8.40;;;21.20;99.90;;;;;;5063150;28;20643;-69
2023/05/21 09:45:10;;;;;;;9.63;8.60;;;21.20;99.90;;;;;;5064119;28;20231;-68
2023/05/21 09:47:42;;;;;;;14.35;8.77;;;21.30;99.90;;;;;;5064249;28;20302;-69
2023/05/21 09:50:10;;;;;;;9.00;8.10;;;21.30;99.90;;;;;;5064179;28;20199;-69
2023/05/21 09:52:37;;;;;;;8.98;7.72;;;21.40;99.90;;;;;;5063982;28;20306;-68
2023/05/21 09:55:07;;;;;;;8.18;7.47;;;21.40;99.90;;;;;;5064281;28;20294;-69
2023/05/21 09:57:41;;;;;;;8.32;7.15;;;21.40;99.90;;;;;;5063886;28;20238;-69
2023/05/21 10:00:11;;;;;;;13.60;8.35;;;21.50;99.90;;;;;;5063642;28;20290;-69
2023/05/21 10:02:43;;;;;;;9.30;8.50;;;21.60;99.90;;;;;;5063356;28;20199;-69
2023/05/21 10:05:11;;;;;;;8.18;7.57;;;21.70;99.90;;;;;;5063803;28;20207;-69
2023/05/21 10:07:42;;;;;;;9.15;8.18;;;21.80;99.90;;;;;;5063538;28;20298;-69
2023/05/21 10:10:13;;;;;;;8.00;7.20;;;21.90;99.90;;;;;;5064000;28;20210;-69
2023/05/21 10:12:43;;;;;;;10.55;7.70;;;21.90;99.90;;;;;;5063565;28;20234;-69
2023/05/21 10:15:15;;;;;;;8.18;7.43;;;22.20;99.90;;;;;;5062897;28;20203;-69
2023/05/21 10:17:43;;;;;;;9.00;7.38;;;22.30;99.90;;;;;;5063523;28;20250;-69
2023/05/21 10:20:11;;;;;;;12.15;7.32;;;22.50;99.90;;;;;;5063527;28;20203;-69
2023/05/21 10:22:39;;;;;;;7.60;6.70;;;22.70;99.90;;;;;;5063401;28;20243;-69
2023/05/21 10:25:08;;;;;;;8.93;6.95;;;22.90;99.90;;;;;;5063907;28;20550;-69
2023/05/21 10:27:37;;;;;;;23.35;8.30;;;23.00;99.90;;;;;;5063383;28;20290;-70
2023/05/21 10:30:06;;;;;;;6.53;5.85;;;23.20;99.90;;;;;;5063394;28;20235;-69
2023/05/21 10:32:34;;;;;;;6.95;6.30;;;23.20;99.90;;;;;;5062531;28;20303;-69
2023/05/21 10:35:01;;;;;;;6.65;6.10;;;23.20;99.90;;;;;;5063742;28;20883;-69
2023/05/21 10:37:29;;;;;;;8.88;6.80;;;23.10;99.90;;;;;;5063633;28;20231;-69
2023/05/21 10:39:57;;;;;;;7.47;6.63;;;23.10;99.90;;;;;;5064095;28;20294;-69
2023/05/21 10:42:48;;;;;;;7.97;6.47;;;23.10;99.90;;;;;;5063587;28;20299;-69
2023/05/21 10:45:23;;;;;;;7.63;6.97;;;23.30;99.90;;;;;;5063131;28;20261;-69
2023/05/21 10:48:25;;;;;;;8.20;6.60;;;23.30;99.90;;;;;;5045798;28;20850;-69
2023/05/21 10:51:14;;;;;;;7.22;6.60;;;23.30;99.90;;;;;;5043132;28;20218;-69
2023/05/21 10:53:55;;;;;;;7.53;6.43;;;23.30;99.90;;;;;;5043787;28;20208;-69
2023/05/21 10:56:25;;;;;;;9.50;7.28;;;23.20;99.90;;;;;;5067022;28;20565;-72
2023/05/21 10:59:20;;;;;;;7.25;6.65;;;23.30;99.90;;;;;;5067118;28;20329;-68
2023/05/21 11:01:49;;;;;;;11.25;7.10;;;23.40;99.90;;;;;;5067272;28;20207;-69
2023/05/21 11:04:16;;;;;;;11.85;7.38;;;23.40;99.90;;;;;;5067357;28;20334;-68
2023/05/21 11:06:48;;;;;;;10.07;6.97;;;23.50;99.90;;;;;;5066812;28;20261;-68
2023/05/21 11:09:16;;;;;;;7.15;6.55;;;23.60;99.90;;;;;;5066801;28;20192;-68
2023/05/21 11:11:44;;;;;;;15.15;7.22;;;23.60;99.90;;;;;;5066825;28;20243;-70
2023/05/21 11:14:38;;;;;;;6.68;6.15;;;23.70;99.90;;;;;;5067029;28;20199;-68
2023/05/21 11:17:11;;;;;;;9.82;7.03;;;23.70;99.90;;;;;;5061058;28;20231;-68
2023/05/21 11:19:40;;;;;;;8.05;7.20;;;23.80;99.90;;;;;;5066442;28;20196;-69
2023/05/21 11:22:08;;;;;;;7.75;6.80;;;23.80;99.90;;;;;;5067038;28;20203;-68
2023/05/21 11:24:38;;;;;;;7.95;6.82;;;24.10;99.90;;;;;;5066012;28;20684;-68
2023/05/21 11:27:06;;;;;;;8.07;6.75;;;24.20;99.90;;;;;;5064765;28;20218;-70
2023/05/21 11:29:45;;;;;;;9.43;6.50;;;24.30;99.90;;;;;;5046446;28;20204;-69
2023/05/21 11:32:16;;;;;;;9.73;7.20;;;24.60;99.90;;;;;;5066562;28;20282;-70
2023/05/21 11:34:47;;;;;;;7.25;6.50;;;24.60;99.90;;;;;;5066716;28;20757;-69
2023/05/21 11:37:40;;;;;;;6.65;6.10;;;24.80;99.90;;;;;;5066698;28;20388;-70
2023/05/21 11:40:29;;;;;;;6.82;6.22;;;24.90;99.90;;;;;;5061000;28;20729;-68
2023/05/21 11:42:57;;;;;;;10.82;5.80;;;24.90;99.90;;;;;;5066446;28;20519;-68
2023/05/21 11:45:29;;;;;;;6.75;6.20;;;25.00;99.90;;;;;;5066076;28;20199;-68
2023/05/21 11:47:56;;;;;;;8.50;5.50;;;25.10;99.90;;;;;;5066384;28;20220;-68
2023/05/21 11:50:23;;;;;;;5.95;5.38;;;25.20;99.90;;;;;;5065816;28;20207;-68
2023/05/21 11:52:50;;;;;;;6.43;5.93;;;25.20;99.90;;;;;;5066614;28;20678;-68
2023/05/21 11:55:22;;;;;;;8.95;5.97;;;25.30;99.90;;;;;;5066672;28;20557;-69
2023/05/21 11:57:53;;;;;;;6.72;5.60;;;25.40;99.90;;;;;;5066142;28;20235;-70
2023/05/21 12:00:20;;;;;;;13.40;5.93;;;25.40;99.90;;;;;;5065918;28;20668;-69
2023/05/21 12:02:51;;;;;;;5.80;5.30;;;25.40;99.90;;;;;;5066753;28;20291;-70
2023/05/21 12:05:18;;;;;;;6.15;5.30;;;25.40;99.90;;;;;;5066066;28;20449;-69
2023/05/21 12:07:48;;;;;;;6.40;5.70;;;25.40;99.90;;;;;;5066538;28;20231;-69
2023/05/21 12:10:15;;;;;;;5.65;5.18;;;25.40;99.70;;;;;;5066137;28;20202;-70
2023/05/21 12:12:42;;;;;;;5.32;4.93;;;25.50;99.60;;;;;;5066036;28;20308;-69
2023/05/21 12:15:12;;;;;;;5.82;5.32;;;25.70;99.50;;;;;;5065510;28;20210;-69
2023/05/21 12:17:39;;;;;;;10.35;5.30;;;25.90;99.30;;;;;;5065918;28;20296;-69
2023/05/21 12:20:09;;;;;;;12.82;5.75;;;26.20;98.80;;;;;;5065684;28;20214;-69
2023/05/21 12:22:42;;;;;;;5.32;4.88;;;26.30;98.60;;;;;;5065105;28;20580;-70
2023/05/21 12:25:10;;;;;;;5.63;5.07;;;26.40;98.40;;;;;;5061889;28;20236;-70
2023/05/21 12:27:38;;;;;;;6.40;5.38;;;26.40;98.50;;;;;;5053378;28;20204;-71
2023/05/21 12:30:07;;;;;;;5.63;5.10;;;26.40;98.00;;;;;;5067424;28;20694;-71
2023/05/21 12:32:34;;;;;;;5.68;4.75;;;26.40;97.70;;;;;;5066763;28;20203;-70
2023/05/21 12:35:01;;;;;;;6.10;5.13;;;26.50;97.50;;;;;;5067143;28;20303;-70
2023/05/21 12:37:31;;;;;;;6.25;5.68;;;26.40;97.60;;;;;;5067162;28;20239;-70